Time;durP1;ratioP1;P1;durP2;ratioP2;P2;SDS_P1;SDS_P2;PMS_P1;PMS_P2;Temp;Humidity;BMP_temperature;BMP_pressure;BME280_temperature;BME280_humidity;BME280_pressure;Samples;Min_cycle;Max_cycle;Signal;HPM_P1;HPM_P2
2024/03/18 00:01:32;;;;;;;2.30;0.80;;;15.60;99.90;;;;;;4131922;28;20046;-53
2024/03/18 00:03:33;;;;;;;2.38;1.00;;;15.60;99.90;;;;;;4132182;28;20058;-52
2024/03/18 00:05:34;;;;;;;1.33;0.68;;;15.70;99.90;;;;;;4131597;28;20054;-52
2024/03/18 00:07:39;;;;;;;1.65;1.00;;;15.70;99.90;;;;;;4132058;28;20054;-52
2024/03/18 00:09:40;;;;;;;0.68;0.50;;;15.70;99.90;;;;;;4132030;28;20077;-52
2024/03/18 00:11:41;;;;;;;1.92;1.30;;;15.70;99.90;;;;;;4132939;28;20058;-61
2024/03/18 00:13:42;;;;;;;1.40;0.98;;;15.70;99.90;;;;;;4132489;28;20050;-52
2024/03/18 00:15:43;;;;;;;8.88;1.20;;;15.60;99.90;;;;;;4131727;28;20046;-52
2024/03/18 00:17:44;;;;;;;1.42;0.80;;;15.60;99.90;;;;;;4131772;28;20481;-52
2024/03/18 00:19:45;;;;;;;1.88;0.85;;;15.60;99.90;;;;;;4131010;28;20414;-53
2024/03/18 00:21:46;;;;;;;2.35;1.08;;;15.70;99.90;;;;;;4131352;28;20117;-52
2024/03/18 00:23:49;;;;;;;2.60;1.27;;;15.60;99.90;;;;;;4131643;28;20046;-52
2024/03/18 00:25:50;;;;;;;1.10;0.70;;;15.60;99.90;;;;;;4131401;28;20051;-53
2024/03/18 00:27:51;;;;;;;1.13;0.85;;;15.60;99.90;;;;;;4131437;28;20042;-52
2024/03/18 00:29:53;;;;;;;1.48;1.27;;;15.70;99.90;;;;;;4115406;28;20481;-52
2024/03/18 00:31:54;;;;;;;1.80;1.17;;;15.70;99.90;;;;;;4131361;28;20051;-52
2024/03/18 00:33:56;;;;;;;1.13;0.80;;;15.70;99.90;;;;;;4131369;28;20050;-53
2024/03/18 00:35:58;;;;;;;1.10;1.00;;;15.70;99.90;;;;;;4131184;28;20395;-52
2024/03/18 00:37:59;;;;;;;2.67;1.20;;;15.70;99.90;;;;;;4130780;28;20042;-52
2024/03/18 00:40:03;;;;;;;3.88;0.80;;;15.70;99.90;;;;;;4115146;28;20059;-53
2024/03/18 00:42:04;;;;;;;0.90;0.70;;;15.70;99.90;;;;;;4131236;28;20050;-52
2024/03/18 00:44:05;;;;;;;0.82;0.70;;;15.70;99.90;;;;;;4131434;28;20452;-52
2024/03/18 00:46:07;;;;;;;7.80;1.55;;;15.70;99.90;;;;;;4131429;28;20057;-52
2024/03/18 00:48:08;;;;;;;1.92;1.42;;;15.60;99.90;;;;;;4131024;28;20108;-52
2024/03/18 00:50:11;;;;;;;3.67;1.40;;;15.60;99.90;;;;;;4130692;28;20054;-51
2024/03/18 00:52:12;;;;;;;1.75;0.82;;;15.60;99.90;;;;;;4131280;28;20053;-52
2024/03/18 00:54:13;;;;;;;1.38;1.02;;;15.50;99.90;;;;;;4131047;28;20105;-51
2024/03/18 00:56:15;;;;;;;1.27;0.98;;;15.60;99.90;;;;;;4130884;28;20050;-57
2024/03/18 00:58:16;;;;;;;1.70;0.70;;;15.50;99.90;;;;;;4130995;28;20047;-52
2024/03/18 01:00:18;;;;;;;1.25;0.77;;;15.40;99.90;;;;;;4114887;28;20430;-52
2024/03/18 01:02:19;;;;;;;1.30;0.60;;;15.40;99.90;;;;;;4130946;28;20046;-52
2024/03/18 01:04:20;;;;;;;2.33;1.02;;;15.40;99.90;;;;;;4130488;28;20093;-52
2024/03/18 01:06:24;;;;;;;1.65;1.35;;;15.50;99.90;;;;;;4131291;28;20049;-53
2024/03/18 01:08:26;;;;;;;0.93;0.60;;;15.60;99.90;;;;;;4131222;28;20054;-52
2024/03/18 01:10:27;;;;;;;1.48;0.50;;;15.60;99.90;;;;;;4131542;28;20054;-53
2024/03/18 01:12:29;;;;;;;1.02;0.57;;;15.60;99.90;;;;;;4131618;28;20047;-55
2024/03/18 01:14:31;;;;;;;0.30;0.30;;;15.70;99.90;;;;;;4131148;28;20106;-52
2024/03/18 01:16:32;;;;;;;0.77;0.77;;;15.60;99.90;;;;;;4131395;28;20077;-56
2024/03/18 01:18:34;;;;;;;0.98;0.40;;;15.60;99.90;;;;;;4131462;28;20054;-55
2024/03/18 01:20:35;;;;;;;1.25;0.60;;;15.70;99.90;;;;;;4131869;28;20046;-56
2024/03/18 01:22:37;;;;;;;1.92;0.82;;;15.70;99.90;;;;;;4132355;28;20050;-52
2024/03/18 01:24:38;;;;;;;0.70;0.40;;;15.60;99.90;;;;;;4115018;28;20483;-52
2024/03/18 01:26:39;;;;;;;0.68;0.40;;;15.50;99.90;;;;;;4130574;28;20042;-51
2024/03/18 01:28:42;;;;;;;0.45;0.45;;;15.60;99.90;;;;;;4130578;28;20067;-52
2024/03/18 01:30:43;;;;;;;2.38;0.77;;;15.60;99.90;;;;;;4130500;28;20490;-53
2024/03/18 01:32:45;;;;;;;1.60;0.50;;;15.60;99.90;;;;;;4130170;28;20081;-52
2024/03/18 01:34:46;;;;;;;0.88;0.50;;;15.60;99.90;;;;;;4130186;28;20042;-53
2024/03/18 01:36:47;;;;;;;2.50;0.80;;;15.60;99.90;;;;;;4130395;28;20101;-53
2024/03/18 01:38:48;;;;;;;0.77;0.73;;;15.60;99.90;;;;;;4130428;28;20051;-52
2024/03/18 01:40:49;;;;;;;1.23;0.40;;;15.60;99.90;;;;;;4130274;28;20061;-53
2024/03/18 01:42:51;;;;;;;1.13;0.47;;;15.60;99.90;;;;;;4130285;28;20050;-53
2024/03/18 01:44:54;;;;;;;0.98;0.57;;;15.60;99.90;;;;;;4130259;28;20046;-52
2024/03/18 01:46:56;;;;;;;0.65;0.25;;;15.50;99.90;;;;;;4130124;28;20046;-52
2024/03/18 01:48:57;;;;;;;2.28;1.25;;;15.50;99.90;;;;;;4130137;28;20049;-51
2024/03/18 01:50:58;;;;;;;0.98;0.30;;;15.50;99.90;;;;;;4130336;28;20054;-52
2024/03/18 01:53:01;;;;;;;1.00;0.52;;;15.50;99.90;;;;;;4114219;28;20106;-52
2024/03/18 01:55:02;;;;;;;1.00;0.60;;;15.50;99.90;;;;;;4130194;28;20049;-52
2024/03/18 01:57:04;;;;;;;0.40;0.40;;;15.50;99.90;;;;;;4130349;28;20046;-53
2024/03/18 01:59:06;;;;;;;1.77;1.00;;;15.40;99.90;;;;;;4130408;28;20046;-52
2024/03/18 02:01:10;;;;;;;0.60;0.50;;;15.50;99.90;;;;;;4130152;28;20054;-53
2024/03/18 02:03:11;;;;;;;0.85;0.52;;;15.50;99.90;;;;;;4129972;28;20073;-52
2024/03/18 02:05:14;;;;;;;2.42;0.77;;;15.50;99.90;;;;;;4130101;28;20042;-52
2024/03/18 02:07:26;;;;;;;1.05;0.57;;;15.40;99.90;;;;;;4130432;28;20154;-53
2024/03/18 02:09:30;;;;;;;1.83;0.50;;;15.50;99.90;;;;;;4130367;28;20069;-52
2024/03/18 02:11:31;;;;;;;1.58;0.82;;;15.40;99.90;;;;;;4130091;28;20051;-53
2024/03/18 02:13:32;;;;;;;1.70;0.32;;;15.50;99.90;;;;;;4130427;28;20053;-52
2024/03/18 02:15:33;;;;;;;3.55;1.27;;;15.40;99.90;;;;;;4113946;28;20442;-52
2024/03/18 02:17:37;;;;;;;3.13;2.15;;;15.50;99.90;;;;;;4130199;28;20183;-52
2024/03/18 02:19:39;;;;;;;1.20;0.97;;;15.50;99.90;;;;;;4130172;28;20557;-53
2024/03/18 02:21:40;;;;;;;8.65;0.80;;;15.40;99.90;;;;;;4130162;28;20382;-53
2024/03/18 02:23:43;;;;;;;0.70;0.70;;;15.40;99.90;;;;;;4130699;28;20469;-52
2024/03/18 02:25:45;;;;;;;0.75;0.40;;;15.30;99.90;;;;;;4130477;28;20503;-55
2024/03/18 02:27:47;;;;;;;1.90;0.55;;;15.30;99.90;;;;;;4130454;28;20072;-53
2024/03/18 02:29:48;;;;;;;3.33;0.55;;;15.30;99.90;;;;;;4130945;28;20042;-52
2024/03/18 02:31:49;;;;;;;1.45;0.60;;;15.40;99.90;;;;;;4114467;28;20051;-52
2024/03/18 02:33:50;;;;;;;1.55;0.45;;;15.30;99.90;;;;;;4130684;28;20051;-52
2024/03/18 02:35:52;;;;;;;2.42;0.90;;;15.30;99.90;;;;;;4115008;28;20050;-60
2024/03/18 02:37:53;;;;;;;1.58;0.73;;;15.30;99.90;;;;;;4130893;28;20046;-53
2024/03/18 02:39:55;;;;;;;0.95;0.60;;;15.30;99.90;;;;;;4130138;28;20109;-52
2024/03/18 02:41:57;;;;;;;1.08;0.50;;;15.30;99.90;;;;;;4129974;28;20129;-52
2024/03/18 02:43:58;;;;;;;0.70;0.70;;;15.30;99.90;;;;;;4130285;28;20390;-53
2024/03/18 02:45:59;;;;;;;0.80;0.70;;;15.30;99.90;;;;;;4113886;28;20053;-53
2024/03/18 02:48:00;;;;;;;0.50;0.47;;;15.30;99.90;;;;;;4130108;28;20410;-53
2024/03/18 02:50:01;;;;;;;0.98;0.73;;;15.30;99.90;;;;;;4129865;28;20069;-53
2024/03/18 02:52:03;;;;;;;0.98;0.88;;;15.20;99.90;;;;;;4130061;28;20453;-52
2024/03/18 02:54:04;;;;;;;1.75;1.05;;;15.30;99.90;;;;;;4129968;28;20046;-53
2024/03/18 02:56:07;;;;;;;1.25;0.75;;;15.20;99.90;;;;;;4129957;28;20096;-54
2024/03/18 02:58:09;;;;;;;1.48;0.80;;;15.20;99.90;;;;;;4130457;28;20046;-52
2024/03/18 03:00:13;;;;;;;0.68;0.68;;;15.20;99.90;;;;;;4129751;28;20136;-53
2024/03/18 03:02:14;;;;;;;1.15;0.35;;;15.20;99.90;;;;;;4132627;28;20054;-53
2024/03/18 03:04:16;;;;;;;2.08;0.40;;;15.20;99.90;;;;;;4133096;28;20050;-54
2024/03/18 03:06:17;;;;;;;4.10;1.02;;;15.30;99.90;;;;;;4118097;28;20043;-55
2024/03/18 03:08:20;;;;;;;1.00;0.68;;;15.30;99.90;;;;;;4135044;28;20050;-54
2024/03/18 03:10:23;;;;;;;0.35;0.25;;;15.20;99.90;;;;;;4134079;28;20050;-54
2024/03/18 03:12:26;;;;;;;0.63;0.50;;;15.20;99.90;;;;;;4132597;28;20058;-55
2024/03/18 03:14:27;;;;;;;0.40;0.40;;;15.20;99.90;;;;;;4132506;28;20057;-54
2024/03/18 03:16:29;;;;;;;0.35;0.35;;;15.20;99.90;;;;;;4132637;28;20053;-53
2024/03/18 03:18:30;;;;;;;1.42;0.80;;;15.20;99.90;;;;;;4132514;28;20054;-53
2024/03/18 03:20:31;;;;;;;0.30;0.20;;;15.30;99.90;;;;;;4132615;28;20050;-53
2024/03/18 03:22:33;;;;;;;0.80;0.75;;;15.30;99.90;;;;;;4132524;28;20042;-54
2024/03/18 03:24:34;;;;;;;0.43;0.30;;;15.20;99.90;;;;;;4116478;28;20053;-59
2024/03/18 03:26:35;;;;;;;0.40;0.32;;;15.20;99.90;;;;;;4132311;28;20129;-53
2024/03/18 03:28:38;;;;;;;0.80;0.60;;;15.20;99.90;;;;;;4132228;28;20051;-53
2024/03/18 03:30:40;;;;;;;0.75;0.40;;;15.20;99.90;;;;;;4132400;28;20058;-54
2024/03/18 03:32:42;;;;;;;2.33;0.77;;;15.20;99.90;;;;;;4132345;28;20054;-54
2024/03/18 03:34:43;;;;;;;4.88;1.58;;;15.20;99.90;;;;;;4132398;28;20053;-53
2024/03/18 03:36:44;;;;;;;1.63;0.70;;;15.20;99.90;;;;;;4132469;28;20457;-53
2024/03/18 03:38:45;;;;;;;0.85;0.40;;;15.20;99.90;;;;;;4133413;28;20042;-56
2024/03/18 03:40:51;;;;;;;1.63;0.40;;;15.10;99.90;;;;;;4132837;28;20050;-52
2024/03/18 03:42:52;;;;;;;0.70;0.55;;;15.10;99.90;;;;;;4131989;28;20453;-53
2024/03/18 03:44:54;;;;;;;1.00;0.60;;;15.10;99.90;;;;;;4132041;28;20054;-53
2024/03/18 03:46:55;;;;;;;0.55;0.30;;;15.10;99.90;;;;;;4132349;28;20125;-53
2024/03/18 03:48:57;;;;;;;1.55;0.65;;;15.10;99.90;;;;;;4132179;28;20046;-53
2024/03/18 03:50:58;;;;;;;1.73;0.47;;;15.10;99.90;;;;;;4132706;28;20480;-54
2024/03/18 03:52:59;;;;;;;0.40;0.40;;;15.10;99.90;;;;;;4132155;28;20042;-53
2024/03/18 03:55:00;;;;;;;0.80;0.75;;;15.10;99.90;;;;;;4132700;28;20050;-53
2024/03/18 03:57:02;;;;;;;1.23;0.47;;;15.10;99.90;;;;;;4131613;28;20089;-53
2024/03/18 03:59:03;;;;;;;0.60;0.38;;;15.10;99.90;;;;;;4132873;28;20042;-53
2024/03/18 04:01:06;;;;;;;0.40;0.30;;;15.10;99.90;;;;;;4132503;28;20061;-54
2024/03/18 04:03:08;;;;;;;2.08;0.55;;;15.10;99.90;;;;;;4132365;28;20042;-59
2024/03/18 04:05:09;;;;;;;0.57;0.57;;;15.10;99.90;;;;;;4132588;28;20042;-53
2024/03/18 04:07:10;;;;;;;2.65;0.30;;;15.10;99.90;;;;;;4131989;28;20116;-57
2024/03/18 04:09:12;;;;;;;0.52;0.45;;;15.10;99.90;;;;;;4132133;28;20051;-53
2024/03/18 04:11:13;;;;;;;0.25;0.20;;;15.20;99.90;;;;;;4132033;28;20173;-53
2024/03/18 04:13:15;;;;;;;1.05;0.88;;;15.20;99.90;;;;;;4114578;28;20048;-52
2024/03/18 04:15:16;;;;;;;3.90;1.13;;;15.20;99.90;;;;;;4131551;28;20429;-54
2024/03/18 04:17:19;;;;;;;2.63;0.65;;;15.10;99.90;;;;;;4131555;28;20054;-53
2024/03/18 04:19:21;;;;;;;0.28;0.20;;;15.10;99.90;;;;;;4131426;28;20116;-53
2024/03/18 04:21:22;;;;;;;0.35;0.30;;;15.00;99.90;;;;;;4131706;28;20050;-53
2024/03/18 04:23:23;;;;;;;9.23;0.73;;;15.00;99.90;;;;;;4131559;28;20504;-54
2024/03/18 04:25:24;;;;;;;0.75;0.55;;;15.00;99.90;;;;;;4115383;28;20498;-54
2024/03/18 04:27:26;;;;;;;0.50;0.43;;;15.00;99.90;;;;;;4115200;28;20093;-53
2024/03/18 04:29:28;;;;;;;3.95;1.08;;;14.90;99.90;;;;;;4131604;28;20509;-53
2024/03/18 04:31:29;;;;;;;0.55;0.50;;;14.90;99.90;;;;;;4131518;28;20105;-53
2024/03/18 04:33:33;;;;;;;0.52;0.50;;;14.90;99.90;;;;;;4131716;28;20054;-53
2024/03/18 04:35:34;;;;;;;2.03;0.55;;;15.00;99.90;;;;;;4131382;28;20093;-54
2024/03/18 04:37:39;;;;;;;2.60;1.45;;;14.80;99.90;;;;;;4131949;28;20057;-53
2024/03/18 04:39:40;;;;;;;1.10;1.00;;;14.80;99.90;;;;;;4131749;28;20053;-53
2024/03/18 04:41:41;;;;;;;0.82;0.35;;;14.70;99.90;;;;;;4131069;28;20101;-53
2024/03/18 04:43:42;;;;;;;1.15;0.47;;;14.60;99.90;;;;;;4131371;28;20050;-53
2024/03/18 04:45:43;;;;;;;0.40;0.40;;;14.60;99.90;;;;;;4131011;28;20052;-53
2024/03/18 04:47:46;;;;;;;0.60;0.45;;;14.60;99.90;;;;;;4131384;28;20450;-52
2024/03/18 04:49:49;;;;;;;4.25;0.68;;;14.60;99.90;;;;;;4131131;28;20117;-53
2024/03/18 04:51:50;;;;;;;1.15;0.60;;;14.60;99.90;;;;;;4133261;28;20498;-53
2024/03/18 04:53:51;;;;;;;0.55;0.50;;;14.60;99.90;;;;;;4132160;28;20459;-52
2024/03/18 04:55:52;;;;;;;0.30;0.30;;;14.70;99.90;;;;;;4130896;28;20409;-52
2024/03/18 04:57:55;;;;;;;0.70;0.68;;;14.60;99.90;;;;;;4131159;28;20057;-52
2024/03/18 04:59:56;;;;;;;0.95;0.60;;;14.50;99.90;;;;;;4131665;28;20058;-52
2024/03/18 05:01:57;;;;;;;0.82;0.50;;;14.50;99.90;;;;;;4131520;28;20038;-53
2024/03/18 05:03:59;;;;;;;0.55;0.38;;;14.50;99.90;;;;;;4131106;28;20050;-53
2024/03/18 05:06:02;;;;;;;3.30;1.05;;;14.50;99.90;;;;;;4130828;28;20129;-51
2024/03/18 05:08:04;;;;;;;0.55;0.50;;;14.40;99.90;;;;;;4130906;28;20065;-53
2024/03/18 05:10:06;;;;;;;2.28;0.68;;;14.40;99.90;;;;;;4131040;28;20050;-53
2024/03/18 05:12:08;;;;;;;2.00;0.90;;;14.40;99.90;;;;;;4131482;28;20100;-54
2024/03/18 05:14:09;;;;;;;2.22;0.68;;;14.40;99.90;;;;;;4130976;28;20046;-53
2024/03/18 05:16:11;;;;;;;0.82;0.82;;;14.40;99.90;;;;;;4131108;28;20490;-53
2024/03/18 05:18:12;;;;;;;1.13;0.90;;;14.40;99.90;;;;;;4130909;28;20050;-53
2024/03/18 05:20:13;;;;;;;1.40;0.93;;;14.40;99.90;;;;;;4130986;28;20050;-51
2024/03/18 05:22:16;;;;;;;1.08;0.98;;;14.40;99.90;;;;;;4131320;28;20383;-52
2024/03/18 05:24:17;;;;;;;1.13;1.00;;;14.50;99.90;;;;;;4130670;28;20046;-53
2024/03/18 05:26:21;;;;;;;0.55;0.52;;;14.40;99.90;;;;;;4131359;28;20121;-53
2024/03/18 05:28:22;;;;;;;1.75;0.68;;;14.50;99.90;;;;;;4115485;28;20054;-59
2024/03/18 05:30:23;;;;;;;0.88;0.68;;;14.40;99.90;;;;;;4130949;28;20129;-53
2024/03/18 05:32:24;;;;;;;1.95;0.50;;;14.40;99.90;;;;;;4130934;28;20140;-53
2024/03/18 05:34:25;;;;;;;0.70;0.70;;;14.40;99.90;;;;;;4130608;28;20046;-52
2024/03/18 05:36:27;;;;;;;2.60;1.75;;;14.40;99.90;;;;;;4130590;28;20105;-53
2024/03/18 05:38:29;;;;;;;0.85;0.50;;;14.40;99.90;;;;;;4130797;28;20042;-53
2024/03/18 05:40:30;;;;;;;1.42;0.82;;;14.30;99.90;;;;;;4130280;28;20055;-53
2024/03/18 05:42:32;;;;;;;1.05;0.80;;;14.30;99.90;;;;;;4130700;28;20053;-52
2024/03/18 05:44:33;;;;;;;1.33;0.98;;;14.40;99.90;;;;;;4130408;28;20054;-52
2024/03/18 05:46:34;;;;;;;0.47;0.40;;;14.40;99.90;;;;;;4130608;28;20043;-51
2024/03/18 05:48:35;;;;;;;1.13;0.70;;;14.40;99.90;;;;;;4130364;28;20057;-52
2024/03/18 05:50:37;;;;;;;1.80;0.93;;;14.40;99.90;;;;;;4130393;28;20058;-52
2024/03/18 05:52:38;;;;;;;0.80;0.65;;;14.30;99.90;;;;;;4130397;28;20062;-52
2024/03/18 05:54:40;;;;;;;0.65;0.65;;;14.30;99.90;;;;;;4130154;28;20050;-51
2024/03/18 05:56:42;;;;;;;0.68;0.50;;;14.30;99.90;;;;;;4130236;28;20046;-53
2024/03/18 05:58:43;;;;;;;1.45;0.85;;;14.30;99.90;;;;;;4130385;28;20050;-52
2024/03/18 06:00:44;;;;;;;1.38;0.93;;;14.20;99.90;;;;;;4130244;28;20046;-53
2024/03/18 06:02:45;;;;;;;0.80;0.80;;;14.10;99.90;;;;;;4130213;28;20507;-53
2024/03/18 06:04:46;;;;;;;2.03;0.70;;;14.10;99.90;;;;;;4130200;28;20053;-52
2024/03/18 06:06:47;;;;;;;0.75;0.70;;;14.10;99.90;;;;;;4130420;28;20140;-52
2024/03/18 06:08:48;;;;;;;1.65;0.80;;;14.10;99.90;;;;;;4130079;28;20046;-53
2024/03/18 06:10:51;;;;;;;1.25;0.95;;;14.10;99.90;;;;;;4130408;28;20054;-53
2024/03/18 06:12:52;;;;;;;1.70;1.20;;;14.10;99.90;;;;;;4130381;28;20069;-59
2024/03/18 06:14:53;;;;;;;3.47;0.75;;;14.10;99.90;;;;;;4130406;28;20046;-53
2024/03/18 06:16:54;;;;;;;2.40;0.75;;;14.00;99.90;;;;;;4130947;28;20042;-61
2024/03/18 06:18:55;;;;;;;0.60;0.47;;;14.00;99.90;;;;;;4131073;28;20046;-52
2024/03/18 06:20:56;;;;;;;2.55;0.70;;;14.00;99.90;;;;;;4130114;28;20054;-52
2024/03/18 06:22:58;;;;;;;0.93;0.75;;;14.10;99.90;;;;;;4129776;28;20046;-52
2024/03/18 06:27:20;;;;;;;0.63;0.63;;;14.10;99.90;;;;;;4130074;28;20462;-53
2024/03/18 06:29:21;;;;;;;1.40;0.70;;;14.20;99.90;;;;;;4130174;28;20046;-51
2024/03/18 06:31:23;;;;;;;4.07;0.80;;;14.20;99.90;;;;;;4130591;28;20132;-52
2024/03/18 06:33:25;;;;;;;1.63;0.90;;;14.10;99.90;;;;;;4130497;28;20058;-53
2024/03/18 06:35:26;;;;;;;2.50;0.90;;;14.20;99.90;;;;;;4130993;28;20057;-61
2024/03/18 06:37:28;;;;;;;3.75;0.80;;;14.20;99.90;;;;;;4135746;28;20414;-53
2024/03/18 06:39:29;;;;;;;1.52;1.02;;;14.10;99.90;;;;;;4135299;28;20050;-54
2024/03/18 06:41:31;;;;;;;4.07;1.15;;;14.00;99.90;;;;;;4133894;28;20054;-53
2024/03/18 06:43:33;;;;;;;1.10;0.75;;;14.10;99.90;;;;;;4133549;28;20054;-53
2024/03/18 06:45:34;;;;;;;1.08;0.68;;;14.10;99.90;;;;;;4133547;28;20073;-52
2024/03/18 06:47:35;;;;;;;1.48;1.05;;;14.10;99.90;;;;;;4133445;28;20101;-53
2024/03/18 06:49:38;;;;;;;0.60;0.60;;;14.20;99.90;;;;;;4132909;28;20050;-53
2024/03/18 06:51:39;;;;;;;1.50;0.80;;;14.20;99.90;;;;;;4132906;28;20055;-53
2024/03/18 06:53:41;;;;;;;1.50;0.60;;;14.20;99.90;;;;;;4132973;28;20046;-53
2024/03/18 06:55:45;;;;;;;4.13;1.00;;;14.20;99.90;;;;;;4132879;28;20417;-52
2024/03/18 06:57:46;;;;;;;2.25;1.10;;;14.30;99.90;;;;;;4133034;28;20046;-53
2024/03/18 06:59:48;;;;;;;2.50;0.98;;;14.30;99.90;;;;;;4116975;28;20050;-53
2024/03/18 07:01:51;;;;;;;1.35;0.70;;;14.30;99.90;;;;;;4132973;28;20057;-53
2024/03/18 07:03:52;;;;;;;2.13;1.25;;;14.20;99.90;;;;;;4132688;28;20057;-53
2024/03/18 07:05:54;;;;;;;2.33;1.48;;;14.30;99.90;;;;;;4132597;28;20509;-52
2024/03/18 07:07:55;;;;;;;2.22;1.83;;;14.30;99.90;;;;;;4132827;28;20046;-53
2024/03/18 07:09:56;;;;;;;4.97;1.35;;;14.40;99.90;;;;;;4116676;28;20051;-53
2024/03/18 07:11:57;;;;;;;3.13;0.90;;;14.40;99.90;;;;;;4132641;28;20042;-53
2024/03/18 07:13:58;;;;;;;0.85;0.82;;;14.40;99.90;;;;;;4132794;28;20046;-52
2024/03/18 07:16:01;;;;;;;6.93;1.40;;;14.40;99.90;;;;;;4132891;28;20057;-53
2024/03/18 07:18:03;;;;;;;1.55;0.80;;;14.40;99.90;;;;;;4133412;28;20054;-53
2024/03/18 07:20:06;;;;;;;2.10;1.20;;;14.50;99.90;;;;;;4133076;28;20054;-52
2024/03/18 07:22:09;;;;;;;1.45;0.80;;;14.50;99.90;;;;;;4132763;28;20140;-53
2024/03/18 07:24:10;;;;;;;2.40;1.10;;;14.50;99.90;;;;;;4133057;28;20061;-53
2024/03/18 07:26:11;;;;;;;1.30;1.08;;;14.50;99.90;;;;;;4133324;28;20046;-54
2024/03/18 07:28:13;;;;;;;1.67;1.08;;;14.60;99.90;;;;;;4133006;28;20441;-53
2024/03/18 07:30:15;;;;;;;2.25;0.85;;;14.70;99.90;;;;;;4133184;28;20043;-53
2024/03/18 07:32:17;;;;;;;2.15;1.10;;;14.70;99.90;;;;;;4132734;28;20058;-53
2024/03/18 07:34:18;;;;;;;1.13;0.82;;;14.70;99.90;;;;;;4132664;28;20050;-53
2024/03/18 07:36:19;;;;;;;1.20;0.98;;;14.90;99.90;;;;;;4132185;28;20050;-52
2024/03/18 07:38:20;;;;;;;4.32;1.38;;;15.10;99.90;;;;;;4132429;28;20370;-56
2024/03/18 07:40:21;;;;;;;2.38;0.90;;;15.00;99.90;;;;;;4132560;28;20054;-52
2024/03/18 07:42:23;;;;;;;1.70;0.70;;;15.10;99.90;;;;;;4132262;28;20055;-53
2024/03/18 07:44:24;;;;;;;1.88;1.10;;;15.00;99.90;;;;;;4132274;28;20046;-59
2024/03/18 07:46:25;;;;;;;1.35;1.00;;;15.00;99.90;;;;;;4131932;28;20145;-54
2024/03/18 07:48:28;;;;;;;1.38;1.00;;;14.90;99.90;;;;;;4115887;28;20387;-53
2024/03/18 07:50:29;;;;;;;0.50;0.47;;;14.90;99.90;;;;;;4131609;28;20120;-53
2024/03/18 07:52:30;;;;;;;1.98;0.88;;;14.90;99.90;;;;;;4132436;28;20050;-52
2024/03/18 07:54:32;;;;;;;2.13;0.55;;;15.00;99.90;;;;;;4132412;28;20089;-53
2024/03/18 07:56:34;;;;;;;1.77;0.80;;;15.00;99.90;;;;;;4132118;28;20051;-53
2024/03/18 07:58:35;;;;;;;2.60;1.35;;;15.10;99.90;;;;;;4132040;28;20042;-53
2024/03/18 08:00:36;;;;;;;0.50;0.40;;;15.10;99.90;;;;;;4131959;28;20050;-55
2024/03/18 08:02:38;;;;;;;6.57;1.08;;;15.10;99.90;;;;;;4116638;28;20058;-54
2024/03/18 08:04:41;;;;;;;5.75;0.68;;;15.20;99.90;;;;;;4132458;28;20100;-53
2024/03/18 08:06:46;;;;;;;1.30;0.68;;;15.10;99.90;;;;;;4132355;28;20065;-53
2024/03/18 08:08:47;;;;;;;1.30;0.50;;;15.10;99.90;;;;;;4116214;28;20043;-54
2024/03/18 08:10:48;;;;;;;3.95;0.63;;;15.10;99.90;;;;;;4132165;28;20053;-53
2024/03/18 08:12:49;;;;;;;6.63;1.73;;;15.20;99.90;;;;;;4132299;28;20061;-53
2024/03/18 08:14:51;;;;;;;1.45;0.60;;;15.20;99.90;;;;;;4115968;28;20042;-53
2024/03/18 08:16:54;;;;;;;3.85;1.08;;;15.30;99.90;;;;;;4131212;28;20061;-52
2024/03/18 08:18:55;;;;;;;1.25;0.80;;;15.30;99.90;;;;;;4131701;28;20046;-52
2024/03/18 08:20:57;;;;;;;0.60;0.30;;;15.20;99.90;;;;;;4132636;28;20042;-53
2024/03/18 08:22:59;;;;;;;0.50;0.45;;;15.20;99.90;;;;;;4133239;28;20049;-54
2024/03/18 08:25:00;;;;;;;1.85;0.50;;;15.20;99.90;;;;;;4131781;28;20046;-53
2024/03/18 08:27:01;;;;;;;0.30;0.20;;;15.10;99.90;;;;;;4131984;28;20089;-53
2024/03/18 08:29:03;;;;;;;0.77;0.73;;;15.00;99.90;;;;;;4131728;28;20054;-53
2024/03/18 08:31:04;;;;;;;0.73;0.40;;;15.10;99.90;;;;;;4115817;28;20054;-53
2024/03/18 08:33:06;;;;;;;0.95;0.52;;;15.10;99.90;;;;;;4131160;28;20054;-53
2024/03/18 08:35:08;;;;;;;3.58;0.82;;;15.20;99.90;;;;;;4131775;28;20057;-53
2024/03/18 08:37:10;;;;;;;1.75;0.73;;;15.30;99.90;;;;;;4131520;28;20050;-56
2024/03/18 08:39:13;;;;;;;0.75;0.55;;;15.30;99.90;;;;;;4131308;28;20133;-55
2024/03/18 08:41:14;;;;;;;1.88;0.30;;;15.40;99.90;;;;;;4132111;28;20074;-56
2024/03/18 08:43:15;;;;;;;5.13;1.67;;;15.60;99.90;;;;;;4133420;28;20046;-55
2024/03/18 08:45:16;;;;;;;0.70;0.30;;;15.50;99.90;;;;;;4132933;28;20046;-55
2024/03/18 08:47:19;;;;;;;1.45;0.28;;;15.50;99.90;;;;;;4132134;28;20418;-60
2024/03/18 08:49:22;;;;;;;0.73;0.40;;;15.60;99.90;;;;;;4131958;28;20437;-58
2024/03/18 08:51:24;;;;;;;1.02;0.40;;;15.40;99.90;;;;;;4131616;28;20129;-53
2024/03/18 08:53:27;;;;;;;1.45;0.30;;;15.40;99.90;;;;;;4132202;28;20050;-54
2024/03/18 08:55:29;;;;;;;2.08;0.55;;;15.40;99.90;;;;;;4132360;28;20046;-66
2024/03/18 08:57:30;;;;;;;1.42;0.63;;;15.40;99.90;;;;;;4132182;28;20050;-53
2024/03/18 08:59:31;;;;;;;0.68;0.40;;;15.50;99.90;;;;;;4131303;28;20431;-53
2024/03/18 09:01:33;;;;;;;0.43;0.43;;;15.60;99.90;;;;;;4130859;28;20525;-53
2024/03/18 09:03:34;;;;;;;0.70;0.30;;;15.70;99.90;;;;;;4114932;28;20515;-53
2024/03/18 09:05:35;;;;;;;0.98;0.30;;;15.70;99.90;;;;;;4130939;28;20043;-52
2024/03/18 09:07:36;;;;;;;0.20;0.20;;;15.90;99.90;;;;;;4130986;28;20046;-54
2024/03/18 09:09:39;;;;;;;3.63;0.63;;;16.00;99.90;;;;;;4131379;28;20111;-52
2024/03/18 09:11:40;;;;;;;0.57;0.55;;;16.10;99.90;;;;;;4131750;28;20046;-53
2024/03/18 09:13:41;;;;;;;1.38;0.30;;;16.10;99.90;;;;;;4130890;28;20054;-56
2024/03/18 09:15:42;;;;;;;4.90;1.38;;;16.10;99.90;;;;;;4130972;28;20517;-56
2024/03/18 09:17:44;;;;;;;0.82;0.20;;;16.10;99.90;;;;;;4130463;28;20046;-57
2024/03/18 09:19:45;;;;;;;0.57;0.57;;;16.20;99.90;;;;;;4130776;28;20469;-56
2024/03/18 09:21:47;;;;;;;0.98;0.40;;;16.30;99.90;;;;;;4130724;28;20061;-56
2024/03/18 09:23:49;;;;;;;0.22;0.20;;;16.40;99.80;;;;;;4130897;28;20474;-55
2024/03/18 09:25:52;;;;;;;0.85;0.20;;;16.40;99.60;;;;;;4130879;28;20089;-55
2024/03/18 09:27:53;;;;;;;0.50;0.50;;;16.50;99.90;;;;;;4114891;28;20129;-55
2024/03/18 09:29:54;;;;;;;0.47;0.20;;;16.50;99.90;;;;;;4130859;28;20050;-56
2024/03/18 09:31:55;;;;;;;0.32;0.20;;;16.70;99.70;;;;;;4130425;28;20050;-56
2024/03/18 09:33:56;;;;;;;0.60;0.30;;;16.80;99.40;;;;;;4130480;28;20588;-56
2024/03/18 09:35:57;;;;;;;1.55;1.05;;;16.90;99.60;;;;;;4130430;28;20473;-56
2024/03/18 09:37:58;;;;;;;1.73;0.95;;;16.90;99.60;;;;;;4130409;28;20046;-55
2024/03/18 09:40:00;;;;;;;0.82;0.40;;;17.00;99.10;;;;;;4130490;28;20053;-56
2024/03/18 09:42:02;;;;;;;0.40;0.40;;;17.00;99.50;;;;;;4130655;28;20167;-57
2024/03/18 09:44:11;;;;;;;0.43;0.22;;;17.20;99.10;;;;;;4130295;28;20050;-57
2024/03/18 09:46:15;;;;;;;0.73;0.20;;;17.20;99.20;;;;;;4113815;28;20059;-56
2024/03/18 09:48:17;;;;;;;2.35;1.27;;;17.30;98.60;;;;;;4130473;28;20046;-56
2024/03/18 09:50:18;;;;;;;0.40;0.20;;;17.30;98.20;;;;;;4130398;28;20135;-57
2024/03/18 09:52:20;;;;;;;0.38;0.28;;;17.30;98.70;;;;;;4130557;28;20062;-56
2024/03/18 09:54:22;;;;;;;0.50;0.22;;;17.30;98.30;;;;;;4130311;28;20054;-56
2024/03/18 09:56:23;;;;;;;1.02;0.30;;;17.20;98.40;;;;;;4130380;28;20645;-57
2024/03/18 09:58:25;;;;;;;0.57;0.32;;;17.10;98.00;;;;;;4130576;28;20046;-57
2024/03/18 10:00:26;;;;;;;1.08;0.68;;;17.00;99.20;;;;;;4113794;28;20050;-55
2024/03/18 10:02:28;;;;;;;7.95;1.05;;;16.80;98.80;;;;;;4130215;28;20054;-53
2024/03/18 10:04:29;;;;;;;0.52;0.20;;;16.80;98.70;;;;;;4130485;28;20046;-54
2024/03/18 10:06:33;;;;;;;1.58;0.25;;;16.90;98.80;;;;;;4131697;28;20047;-56
2024/03/18 10:08:37;;;;;;;0.50;0.38;;;17.00;99.20;;;;;;4131471;28;20083;-55
2024/03/18 10:10:38;;;;;;;0.82;0.40;;;17.10;99.50;;;;;;4132134;28;20061;-58
2024/03/18 10:12:40;;;;;;;1.15;0.35;;;17.00;98.90;;;;;;4133473;28;20082;-55
2024/03/18 10:14:43;;;;;;;0.82;0.38;;;17.00;98.50;;;;;;4117015;28;20055;-53
2024/03/18 10:16:44;;;;;;;0.88;0.63;;;16.80;98.10;;;;;;4133386;28;20046;-56
2024/03/18 10:18:45;;;;;;;2.35;0.70;;;16.70;98.30;;;;;;4133526;28;20153;-54
2024/03/18 10:20:47;;;;;;;1.45;0.50;;;16.60;98.80;;;;;;4133363;28;20128;-53
2024/03/18 10:22:51;;;;;;;1.27;0.30;;;16.70;98.30;;;;;;4133348;28;20049;-53
2024/03/18 10:24:54;;;;;;;0.70;0.70;;;16.80;98.70;;;;;;4133224;28;20105;-53
2024/03/18 10:26:56;;;;;;;0.45;0.43;;;16.90;97.50;;;;;;4133334;28;20042;-54
2024/03/18 10:28:57;;;;;;;1.75;0.73;;;17.00;97.70;;;;;;4133246;28;20056;-54
2024/03/18 10:31:00;;;;;;;0.30;0.25;;;17.00;96.90;;;;;;4117230;28;20039;-53
2024/03/18 10:33:04;;;;;;;2.85;0.55;;;17.00;97.10;;;;;;4133348;28;20046;-53
2024/03/18 10:35:14;;;;;;;0.95;0.60;;;16.90;97.20;;;;;;4133188;28;20046;-53
2024/03/18 10:37:21;;;;;;;10.52;1.67;;;16.90;97.20;;;;;;4133630;28;20498;-60